sensor_id;sensor_type;location;lat;lon;timestamp;pressure;altitude;pressure_sealevel;temperature;humidity
15817;BME280;8009;50.070;8.232;2022-09-21T00:01:40;100863.84;;;14.21;69.53
15817;BME280;8009;50.070;8.232;2022-09-21T00:04:08;100865.47;;;13.99;62.78
15817;BME280;8009;50.070;8.232;2022-09-21T00:06:40;100865.47;;;14.23;71.68
15817;BME280;8009;50.070;8.232;2022-09-21T00:09:08;100863.97;;;14.66;71.55
15817;BME280;8009;50.070;8.232;2022-09-21T00:11:36;100863.47;;;13.66;63.21
15817;BME280;8009;50.070;8.232;2022-09-21T00:14:07;100867.06;;;13.04;65.47
15817;BME280;8009;50.070;8.232;2022-09-21T00:16:37;100873.38;;;12.41;66.73
15817;BME280;8009;50.070;8.232;2022-09-21T00:19:05;100865.69;;;12.86;66.28
15817;BME280;8009;50.070;8.232;2022-09-21T00:21:34;100866.00;;;12.30;67.66
15817;BME280;8009;50.070;8.232;2022-09-21T00:24:06;100873.84;;;12.08;67.71
15817;BME280;8009;50.070;8.232;2022-09-21T00:26:34;100871.84;;;11.84;68.80
15817;BME280;8009;50.070;8.232;2022-09-21T00:29:03;100878.09;;;12.25;67.78
15817;BME280;8009;50.070;8.232;2022-09-21T00:31:32;100891.81;;;11.82;68.50
15817;BME280;8009;50.070;8.232;2022-09-21T00:34:01;100885.19;;;13.16;77.47
15817;BME280;8009;50.070;8.232;2022-09-21T00:36:33;100876.97;;;12.02;69.00
15817;BME280;8009;50.070;8.232;2022-09-21T00:39:05;100880.44;;;12.56;70.22
15817;BME280;8009;50.070;8.232;2022-09-21T00:41:35;100881.66;;;11.58;69.43
15817;BME280;8009;50.070;8.232;2022-09-21T00:44:22;100879.91;;;11.16;73.62
15817;BME280;8009;50.070;8.232;2022-09-21T00:46:53;100879.59;;;12.03;73.01
15817;BME280;8009;50.070;8.232;2022-09-21T00:49:23;100881.63;;;13.53;75.94
15817;BME280;8009;50.070;8.232;2022-09-21T00:51:52;100874.53;;;14.11;72.59
15817;BME280;8009;50.070;8.232;2022-09-21T00:54:28;100877.78;;;14.51;71.85
15817;BME280;8009;50.070;8.232;2022-09-21T00:56:59;100879.28;;;14.55;71.52
15817;BME280;8009;50.070;8.232;2022-09-21T00:59:30;100881.19;;;13.59;71.68
15817;BME280;8009;50.070;8.232;2022-09-21T01:02:00;100882.00;;;13.72;66.90
15817;BME280;8009;50.070;8.232;2022-09-21T01:04:30;100878.50;;;14.53;70.93
15817;BME280;8009;50.070;8.232;2022-09-21T01:07:04;100871.66;;;14.36;66.18
15817;BME280;8009;50.070;8.232;2022-09-21T01:09:39;100878.34;;;13.36;63.73
15817;BME280;8009;50.070;8.232;2022-09-21T01:12:21;100885.19;;;12.65;65.24
15817;BME280;8009;50.070;8.232;2022-09-21T01:15:00;100884.44;;;12.76;71.39
15817;BME280;8009;50.070;8.232;2022-09-21T01:17:37;100889.19;;;11.94;67.67
15817;BME280;8009;50.070;8.232;2022-09-21T01:20:34;100892.44;;;11.73;75.94
15817;BME280;8009;50.070;8.232;2022-09-21T01:23:31;100889.63;;;13.67;73.06
15817;BME280;8009;50.070;8.232;2022-09-21T01:26:13;100870.44;;;14.05;70.25
15817;BME280;8009;50.070;8.232;2022-09-21T01:29:12;100888.81;;;13.78;71.02
15817;BME280;8009;50.070;8.232;2022-09-21T01:31:48;100878.09;;;14.35;68.74
15817;BME280;8009;50.070;8.232;2022-09-21T01:34:23;100889.03;;;14.58;72.03
15817;BME280;8009;50.070;8.232;2022-09-21T01:36:54;100892.56;;;12.89;66.40
15817;BME280;8009;50.070;8.232;2022-09-21T01:39:26;100895.59;;;12.84;64.50
15817;BME280;8009;50.070;8.232;2022-09-21T01:41:56;100901.78;;;12.61;66.01
15817;BME280;8009;50.070;8.232;2022-09-21T01:44:30;100900.31;;;13.81;68.28
15817;BME280;8009;50.070;8.232;2022-09-21T01:47:02;100879.91;;;14.59;72.21
15817;BME280;8009;50.070;8.232;2022-09-21T01:49:36;100893.38;;;14.83;71.80
15817;BME280;8009;50.070;8.232;2022-09-21T01:52:10;100883.88;;;14.66;70.90
15817;BME280;8009;50.070;8.232;2022-09-21T01:54:44;100887.66;;;14.52;70.57
15817;BME280;8009;50.070;8.232;2022-09-21T01:57:17;100882.66;;;14.93;68.87
15817;BME280;8009;50.070;8.232;2022-09-21T01:59:54;100878.34;;;15.01;69.96
15817;BME280;8009;50.070;8.232;2022-09-21T02:02:27;100875.84;;;15.43;69.04
15817;BME280;8009;50.070;8.232;2022-09-21T02:04:59;100885.41;;;13.87;63.33
15817;BME280;8009;50.070;8.232;2022-09-21T02:07:28;100885.59;;;13.97;71.51
15817;BME280;8009;50.070;8.232;2022-09-21T02:09:57;100876.13;;;14.49;71.52
15817;BME280;8009;50.070;8.232;2022-09-21T02:12:25;100877.97;;;14.48;70.92
15817;BME280;8009;50.070;8.232;2022-09-21T02:14:59;100883.28;;;13.43;67.02
15817;BME280;8009;50.070;8.232;2022-09-21T02:17:35;100883.44;;;13.03;70.28
15817;BME280;8009;50.070;8.232;2022-09-21T02:20:14;100882.66;;;14.35;72.01
15817;BME280;8009;50.070;8.232;2022-09-21T02:22:52;100883.47;;;12.77;70.99
15817;BME280;8009;50.070;8.232;2022-09-21T02:25:30;100872.84;;;14.21;63.79
15817;BME280;8009;50.070;8.232;2022-09-21T02:28:06;100877.38;;;14.09;72.51
15817;BME280;8009;50.070;8.232;2022-09-21T02:30:40;100866.59;;;14.32;69.97
15817;BME280;8009;50.070;8.232;2022-09-21T02:33:23;100877.19;;;14.00;67.66
15817;BME280;8009;50.070;8.232;2022-09-21T02:36:04;100876.81;;;13.93;60.53
15817;BME280;8009;50.070;8.232;2022-09-21T02:38:36;100875.72;;;14.31;72.22
15817;BME280;8009;50.070;8.232;2022-09-21T02:41:12;100880.16;;;13.73;62.34
15817;BME280;8009;50.070;8.232;2022-09-21T02:43:45;100871.75;;;14.59;71.41
15817;BME280;8009;50.070;8.232;2022-09-21T02:46:24;100877.13;;;14.12;66.89
15817;BME280;8009;50.070;8.232;2022-09-21T02:48:56;100880.75;;;13.89;72.32
15817;BME280;8009;50.070;8.232;2022-09-21T02:51:28;100879.97;;;13.26;62.89
15817;BME280;8009;50.070;8.232;2022-09-21T02:54:01;100882.34;;;13.31;74.28
15817;BME280;8009;50.070;8.232;2022-09-21T02:56:31;100887.06;;;13.53;70.51
15817;BME280;8009;50.070;8.232;2022-09-21T02:59:01;100884.50;;;13.38;72.57
15817;BME280;8009;50.070;8.232;2022-09-21T03:01:33;100887.88;;;12.27;68.28
15817;BME280;8009;50.070;8.232;2022-09-21T03:04:02;100890.84;;;12.75;77.07
15817;BME280;8009;50.070;8.232;2022-09-21T03:06:32;100883.53;;;13.27;66.62
15817;BME280;8009;50.070;8.232;2022-09-21T03:09:01;100894.69;;;11.52;67.29
15817;BME280;8009;50.070;8.232;2022-09-21T03:11:32;100880.50;;;13.31;74.51
15817;BME280;8009;50.070;8.232;2022-09-21T03:14:00;100893.00;;;12.70;64.41
15817;BME280;8009;50.070;8.232;2022-09-21T03:16:29;100891.56;;;11.45;67.09
15817;BME280;8009;50.070;8.232;2022-09-21T03:19:00;100891.19;;;11.22;68.03
15817;BME280;8009;50.070;8.232;2022-09-21T03:21:31;100893.47;;;12.11;76.61
15817;BME280;8009;50.070;8.232;2022-09-21T03:24:00;100901.03;;;11.23;69.17
15817;BME280;8009;50.070;8.232;2022-09-21T03:26:28;100900.75;;;10.71;70.38
15817;BME280;8009;50.070;8.232;2022-09-21T03:28:58;100904.44;;;10.70;72.59
15817;BME280;8009;50.070;8.232;2022-09-21T03:31:26;100908.94;;;10.55;70.30
15817;BME280;8009;50.070;8.232;2022-09-21T03:33:55;100916.38;;;10.66;70.21
15817;BME280;8009;50.070;8.232;2022-09-21T03:36:26;100919.13;;;10.36;71.06
15817;BME280;8009;50.070;8.232;2022-09-21T03:38:55;100927.59;;;10.14;73.07
15817;BME280;8009;50.070;8.232;2022-09-21T03:41:23;100918.19;;;10.51;73.87
15817;BME280;8009;50.070;8.232;2022-09-21T03:43:52;100924.97;;;10.28;73.98
15817;BME280;8009;50.070;8.232;2022-09-21T03:46:20;100925.00;;;10.12;71.96
15817;BME280;8009;50.070;8.232;2022-09-21T03:48:48;100922.44;;;10.25;73.35
15817;BME280;8009;50.070;8.232;2022-09-21T03:51:17;100931.06;;;9.54;74.42
15817;BME280;8009;50.070;8.232;2022-09-21T03:53:48;100928.38;;;10.76;73.09
15817;BME280;8009;50.070;8.232;2022-09-21T03:56:17;100925.44;;;11.36;80.94
15817;BME280;8009;50.070;8.232;2022-09-21T03:58:45;100919.16;;;11.36;67.76
15817;BME280;8009;50.070;8.232;2022-09-21T04:01:13;100920.63;;;10.70;69.35
15817;BME280;8009;50.070;8.232;2022-09-21T04:03:42;100929.41;;;10.13;71.53
15817;BME280;8009;50.070;8.232;2022-09-21T04:06:11;100932.88;;;9.69;72.90
15817;BME280;8009;50.070;8.232;2022-09-21T04:08:40;100927.91;;;10.23;72.42
15817;BME280;8009;50.070;8.232;2022-09-21T04:11:12;100934.44;;;9.89;77.60
15817;BME280;8009;50.070;8.232;2022-09-21T04:13:42;100927.91;;;9.46;74.55
15817;BME280;8009;50.070;8.232;2022-09-21T04:16:10;100932.22;;;11.70;82.69
15817;BME280;8009;50.070;8.232;2022-09-21T04:18:38;100924.22;;;11.28;68.29
15817;BME280;8009;50.070;8.232;2022-09-21T04:21:07;100927.16;;;10.52;70.25
15817;BME280;8009;50.070;8.232;2022-09-21T04:23:35;100934.28;;;10.38;70.63
15817;BME280;8009;50.070;8.232;2022-09-21T04:26:04;100946.47;;;10.14;72.28
15817;BME280;8009;50.070;8.232;2022-09-21T04:28:35;100937.94;;;10.21;79.65
15817;BME280;8009;50.070;8.232;2022-09-21T04:31:03;100931.00;;;12.30;75.73
15817;BME280;8009;50.070;8.232;2022-09-21T04:33:32;100931.00;;;12.03;77.03
15817;BME280;8009;50.070;8.232;2022-09-21T04:36:01;100924.97;;;10.58;74.07
15817;BME280;8009;50.070;8.232;2022-09-21T04:38:30;100931.44;;;11.13;69.16
15817;BME280;8009;50.070;8.232;2022-09-21T04:41:02;100931.94;;;11.19;69.44
15817;BME280;8009;50.070;8.232;2022-09-21T04:43:31;100943.28;;;9.91;72.91
15817;BME280;8009;50.070;8.232;2022-09-21T04:46:06;100932.94;;;12.01;74.73
15817;BME280;8009;50.070;8.232;2022-09-21T04:48:35;100932.16;;;13.30;74.58
15817;BME280;8009;50.070;8.232;2022-09-21T04:51:07;100933.31;;;11.68;66.74
15817;BME280;8009;50.070;8.232;2022-09-21T04:53:38;100942.06;;;10.87;68.10
15817;BME280;8009;50.070;8.232;2022-09-21T04:56:07;100951.44;;;10.52;69.49
15817;BME280;8009;50.070;8.232;2022-09-21T04:58:36;100944.91;;;10.10;70.79
15817;BME280;8009;50.070;8.232;2022-09-21T05:01:07;100945.78;;;10.26;71.02
15817;BME280;8009;50.070;8.232;2022-09-21T05:03:36;100945.88;;;10.09;71.58
15817;BME280;8009;50.070;8.232;2022-09-21T05:06:05;100936.34;;;12.70;72.00
15817;BME280;8009;50.070;8.232;2022-09-21T05:08:35;100949.31;;;12.39;75.61
15817;BME280;8009;50.070;8.232;2022-09-21T05:11:17;100946.56;;;12.79;72.51
15817;BME280;8009;50.070;8.232;2022-09-21T05:13:47;100949.50;;;12.76;71.84
15817;BME280;8009;50.070;8.232;2022-09-21T05:16:18;100953.31;;;12.34;67.84
15817;BME280;8009;50.070;8.232;2022-09-21T05:18:46;100961.84;;;12.01;70.79
15817;BME280;8009;50.070;8.232;2022-09-21T05:21:15;100964.09;;;11.24;68.86
15817;BME280;8009;50.070;8.232;2022-09-21T05:23:43;100967.69;;;11.80;71.23
15817;BME280;8009;50.070;8.232;2022-09-21T05:26:11;100965.34;;;12.03;80.11
15817;BME280;8009;50.070;8.232;2022-09-21T05:28:41;100979.25;;;10.68;69.20
15817;BME280;8009;50.070;8.232;2022-09-21T05:31:26;100976.13;;;10.90;72.89
15817;BME280;8009;50.070;8.232;2022-09-21T05:34:03;100984.88;;;12.20;73.09
15817;BME280;8009;50.070;8.232;2022-09-21T05:36:41;100977.19;;;11.44;67.71
15817;BME280;8009;50.070;8.232;2022-09-21T05:39:11;100975.06;;;10.78;68.33
15817;BME280;8009;50.070;8.232;2022-09-21T05:41:40;100985.19;;;10.44;69.80
15817;BME280;8009;50.070;8.232;2022-09-21T05:44:12;100989.84;;;9.79;72.14
15817;BME280;8009;50.070;8.232;2022-09-21T05:46:48;100998.69;;;9.34;75.26
15817;BME280;8009;50.070;8.232;2022-09-21T05:49:21;100997.22;;;10.07;71.35
15817;BME280;8009;50.070;8.232;2022-09-21T05:52:00;100993.66;;;10.07;71.41
15817;BME280;8009;50.070;8.232;2022-09-21T05:54:40;100995.16;;;10.12;72.34
15817;BME280;8009;50.070;8.232;2022-09-21T05:57:15;100998.97;;;10.24;71.17
15817;BME280;8009;50.070;8.232;2022-09-21T06:00:00;101010.53;;;10.10;71.35
15817;BME280;8009;50.070;8.232;2022-09-21T06:02:45;101005.16;;;9.94;72.46
15817;BME280;8009;50.070;8.232;2022-09-21T06:05:18;100997.28;;;10.53;75.68
15817;BME280;8009;50.070;8.232;2022-09-21T06:07:46;100999.59;;;10.29;71.50
15817;BME280;8009;50.070;8.232;2022-09-21T06:10:15;101002.00;;;10.34;71.21
15817;BME280;8009;50.070;8.232;2022-09-21T06:12:43;101004.97;;;10.29;71.12
15817;BME280;8009;50.070;8.232;2022-09-21T06:15:13;101008.03;;;10.39;72.54
15817;BME280;8009;50.070;8.232;2022-09-21T06:17:44;101004.34;;;10.40;70.97
15817;BME280;8009;50.070;8.232;2022-09-21T06:20:13;100997.75;;;10.30;71.80
15817;BME280;8009;50.070;8.232;2022-09-21T06:22:41;100999.94;;;10.39;71.12
15817;BME280;8009;50.070;8.232;2022-09-21T06:25:09;101003.06;;;11.06;70.82
15817;BME280;8009;50.070;8.232;2022-09-21T06:27:38;101006.28;;;10.68;70.69
15817;BME280;8009;50.070;8.232;2022-09-21T06:30:07;101008.81;;;10.71;76.33
15817;BME280;8009;50.070;8.232;2022-09-21T06:32:35;101011.38;;;11.17;79.50
15817;BME280;8009;50.070;8.232;2022-09-21T06:35:07;101001.41;;;12.30;73.83
15817;BME280;8009;50.070;8.232;2022-09-21T06:37:36;101000.84;;;11.69;67.92
15817;BME280;8009;50.070;8.232;2022-09-21T06:40:07;101002.81;;;11.39;68.32
15817;BME280;8009;50.070;8.232;2022-09-21T06:42:36;101008.41;;;11.36;68.88
15817;BME280;8009;50.070;8.232;2022-09-21T06:45:06;101008.72;;;13.46;76.03
15817;BME280;8009;50.070;8.232;2022-09-21T06:47:34;101004.03;;;13.61;72.01
15817;BME280;8009;50.070;8.232;2022-09-21T06:50:06;101012.59;;;14.17;71.19
15817;BME280;8009;50.070;8.232;2022-09-21T06:52:34;101007.84;;;14.32;71.29
15817;BME280;8009;50.070;8.232;2022-09-21T06:55:05;101004.44;;;14.41;69.20
15817;BME280;8009;50.070;8.232;2022-09-21T06:57:34;100999.75;;;14.43;70.71
15817;BME280;8009;50.070;8.232;2022-09-21T07:00:04;100999.81;;;14.90;69.89
15817;BME280;8009;50.070;8.232;2022-09-21T07:02:32;101001.53;;;14.79;69.22
15817;BME280;8009;50.070;8.232;2022-09-21T07:05:01;101006.53;;;13.00;63.55
15817;BME280;8009;50.070;8.232;2022-09-21T07:07:32;101008.44;;;13.87;66.76
15817;BME280;8009;50.070;8.232;2022-09-21T07:10:01;101009.38;;;13.99;65.08
15817;BME280;8009;50.070;8.232;2022-09-21T07:12:33;101009.75;;;14.19;69.28
15817;BME280;8009;50.070;8.232;2022-09-21T07:15:02;101003.66;;;14.98;69.66
15817;BME280;8009;50.070;8.232;2022-09-21T07:17:31;101014.38;;;14.29;63.55
15817;BME280;8009;50.070;8.232;2022-09-21T07:20:01;101013.22;;;15.04;68.14
15817;BME280;8009;50.070;8.232;2022-09-21T07:22:33;100998.75;;;15.03;69.25
15817;BME280;8009;50.070;8.232;2022-09-21T07:25:03;101000.63;;;14.68;63.89
15817;BME280;8009;50.070;8.232;2022-09-21T07:27:33;101012.84;;;15.08;69.19
15817;BME280;8009;50.070;8.232;2022-09-21T07:30:01;101006.31;;;15.22;68.97
15817;BME280;8009;50.070;8.232;2022-09-21T07:32:30;101005.06;;;14.69;69.69
15817;BME280;8009;50.070;8.232;2022-09-21T07:35:00;101007.44;;;15.20;68.89
15817;BME280;8009;50.070;8.232;2022-09-21T07:37:33;101011.44;;;15.49;67.75
15817;BME280;8009;50.070;8.232;2022-09-21T07:40:02;100998.91;;;15.35;67.89
15817;BME280;8009;50.070;8.232;2022-09-21T07:42:32;101011.09;;;15.65;67.53
15817;BME280;8009;50.070;8.232;2022-09-21T07:45:01;101005.25;;;15.70;65.75
15817;BME280;8009;50.070;8.232;2022-09-21T07:47:30;101006.44;;;15.32;66.81
15817;BME280;8009;50.070;8.232;2022-09-21T07:49:58;101002.00;;;15.31;67.14
15817;BME280;8009;50.070;8.232;2022-09-21T07:52:27;101002.38;;;15.60;66.73
15817;BME280;8009;50.070;8.232;2022-09-21T07:54:58;101011.28;;;15.51;67.36
15817;BME280;8009;50.070;8.232;2022-09-21T07:57:27;101005.59;;;15.54;67.78
15817;BME280;8009;50.070;8.232;2022-09-21T08:00:09;101006.47;;;15.54;66.79
15817;BME280;8009;50.070;8.232;2022-09-21T08:02:38;101008.59;;;15.84;65.96
15817;BME280;8009;50.070;8.232;2022-09-21T08:05:07;101006.44;;;16.11;65.78
15817;BME280;8009;50.070;8.232;2022-09-21T08:07:35;101005.09;;;15.49;65.77
15817;BME280;8009;50.070;8.232;2022-09-21T08:10:08;101005.84;;;16.07;65.10
15817;BME280;8009;50.070;8.232;2022-09-21T08:12:37;101013.25;;;15.49;66.93
15817;BME280;8009;50.070;8.232;2022-09-21T08:15:06;101005.81;;;15.28;61.72
15817;BME280;8009;50.070;8.232;2022-09-21T08:17:37;101017.78;;;15.15;66.54
15817;BME280;8009;50.070;8.232;2022-09-21T08:20:08;101019.34;;;14.95;68.26
15817;BME280;8009;50.070;8.232;2022-09-21T08:22:41;101022.81;;;15.54;67.94
15817;BME280;8009;50.070;8.232;2022-09-21T08:25:12;101018.84;;;15.47;68.04
15817;BME280;8009;50.070;8.232;2022-09-21T08:27:41;101016.75;;;15.62;66.68
15817;BME280;8009;50.070;8.232;2022-09-21T08:30:13;101015.88;;;15.95;66.08
15817;BME280;8009;50.070;8.232;2022-09-21T08:32:41;101025.56;;;14.97;67.92
15817;BME280;8009;50.070;8.232;2022-09-21T08:35:10;101022.19;;;15.51;67.82
15817;BME280;8009;50.070;8.232;2022-09-21T08:37:39;101026.94;;;14.43;66.25
15817;BME280;8009;50.070;8.232;2022-09-21T08:40:14;101016.88;;;15.38;69.20
15817;BME280;8009;50.070;8.232;2022-09-21T08:42:53;101027.56;;;15.06;69.89
15817;BME280;8009;50.070;8.232;2022-09-21T08:45:27;101022.13;;;14.71;62.62
15817;BME280;8009;50.070;8.232;2022-09-21T08:48:02;101017.09;;;15.24;68.07
15817;BME280;8009;50.070;8.232;2022-09-21T08:50:36;101012.91;;;15.87;67.64
15817;BME280;8009;50.070;8.232;2022-09-21T08:53:10;101016.66;;;15.06;66.38
15817;BME280;8009;50.070;8.232;2022-09-21T08:55:42;101018.56;;;15.17;62.04
15817;BME280;8009;50.070;8.232;2022-09-21T08:58:20;101019.63;;;15.03;62.13
15817;BME280;8009;50.070;8.232;2022-09-21T09:01:05;101022.41;;;15.36;68.78
15817;BME280;8009;50.070;8.232;2022-09-21T09:03:58;101011.16;;;16.08;66.21
15817;BME280;8009;50.070;8.232;2022-09-21T09:06:36;101009.31;;;15.87;60.11
15817;BME280;8009;50.070;8.232;2022-09-21T09:09:25;101017.47;;;15.53;60.76
15817;BME280;8009;50.070;8.232;2022-09-21T09:12:10;101016.28;;;16.34;65.41
15817;BME280;8009;50.070;8.232;2022-09-21T09:14:58;101012.31;;;15.83;66.56
15817;BME280;8009;50.070;8.232;2022-09-21T09:17:38;101003.84;;;15.98;65.84
15817;BME280;8009;50.070;8.232;2022-09-21T09:20:13;101009.66;;;16.16;66.21
15817;BME280;8009;50.070;8.232;2022-09-21T09:22:45;101003.38;;;16.36;65.58
15817;BME280;8009;50.070;8.232;2022-09-21T09:25:18;100998.78;;;15.48;59.62
15817;BME280;8009;50.070;8.232;2022-09-21T09:27:53;100997.09;;;16.24;65.65
15817;BME280;8009;50.070;8.232;2022-09-21T09:30:25;100996.22;;;15.92;66.15
15817;BME280;8009;50.070;8.232;2022-09-21T09:32:58;100992.50;;;16.25;63.06
15817;BME280;8009;50.070;8.232;2022-09-21T09:35:30;100998.13;;;16.12;60.67
15817;BME280;8009;50.070;8.232;2022-09-21T09:38:04;100990.75;;;16.35;65.66
15817;BME280;8009;50.070;8.232;2022-09-21T09:43:11;100982.22;;;16.28;63.39
15817;BME280;8009;50.070;8.232;2022-09-21T09:45:53;100983.78;;;16.74;64.41
15817;BME280;8009;50.070;8.232;2022-09-21T09:48:36;100975.53;;;16.32;64.60
15817;BME280;8009;50.070;8.232;2022-09-21T09:51:11;100981.97;;;15.99;55.25
15817;BME280;8009;50.070;8.232;2022-09-21T09:53:40;100984.03;;;16.07;65.95
15817;BME280;8009;50.070;8.232;2022-09-21T09:56:09;100978.50;;;15.86;64.63
15817;BME280;8009;50.070;8.232;2022-09-21T09:58:48;100979.72;;;15.93;60.10
15817;BME280;8009;50.070;8.232;2022-09-21T10:01:36;100963.81;;;16.53;64.66
15817;BME280;8009;50.070;8.232;2022-09-21T10:04:07;100968.22;;;16.65;64.03
15817;BME280;8009;50.070;8.232;2022-09-21T10:06:36;100973.41;;;16.68;63.36
15817;BME280;8009;50.070;8.232;2022-09-21T10:09:18;100968.66;;;16.70;63.61
15817;BME280;8009;50.070;8.232;2022-09-21T10:11:49;100965.06;;;16.70;63.73
15817;BME280;8009;50.070;8.232;2022-09-21T10:14:28;100965.47;;;16.65;63.81
15817;BME280;8009;50.070;8.232;2022-09-21T10:17:03;100967.47;;;16.63;64.36
15817;BME280;8009;50.070;8.232;2022-09-21T10:19:32;100959.06;;;16.55;61.44
15817;BME280;8009;50.070;8.232;2022-09-21T10:22:03;100966.78;;;16.18;64.31
15817;BME280;8009;50.070;8.232;2022-09-21T10:24:34;100969.81;;;16.68;64.27
15817;BME280;8009;50.070;8.232;2022-09-21T10:27:06;100962.34;;;16.70;64.04
15817;BME280;8009;50.070;8.232;2022-09-21T10:29:43;100960.00;;;16.76;63.81
15817;BME280;8009;50.070;8.232;2022-09-21T10:32:20;100955.66;;;16.09;54.23
15817;BME280;8009;50.070;8.232;2022-09-21T10:35:13;100954.44;;;16.67;64.02
15817;BME280;8009;50.070;8.232;2022-09-21T10:37:43;100951.75;;;16.88;63.51
15817;BME280;8009;50.070;8.232;2022-09-21T10:40:25;100951.00;;;16.86;63.38
15817;BME280;8009;50.070;8.232;2022-09-21T10:42:56;100944.09;;;17.02;63.34
15817;BME280;8009;50.070;8.232;2022-09-21T10:45:29;100952.47;;;17.11;62.96
15817;BME280;8009;50.070;8.232;2022-09-21T10:48:07;100946.06;;;17.00;63.47
15817;BME280;8009;50.070;8.232;2022-09-21T10:50:38;100940.28;;;16.73;52.46
15817;BME280;8009;50.070;8.232;2022-09-21T10:53:12;100939.16;;;16.96;63.29
15817;BME280;8009;50.070;8.232;2022-09-21T10:55:52;100937.44;;;16.95;60.56
15817;BME280;8009;50.070;8.232;2022-09-21T10:58:24;100938.56;;;16.93;60.14
15817;BME280;8009;50.070;8.232;2022-09-21T11:01:10;100935.31;;;16.99;62.60
15817;BME280;8009;50.070;8.232;2022-09-21T11:03:47;100935.94;;;17.12;62.31
15817;BME280;8009;50.070;8.232;2022-09-21T11:06:25;100932.03;;;17.05;62.92
15817;BME280;8009;50.070;8.232;2022-09-21T11:09:06;100933.81;;;17.16;62.46
15817;BME280;8009;50.070;8.232;2022-09-21T11:11:46;100933.38;;;16.90;62.77
15817;BME280;8009;50.070;8.232;2022-09-21T11:14:31;100920.56;;;16.80;50.94
15817;BME280;8009;50.070;8.232;2022-09-21T11:17:09;100929.66;;;16.91;61.70
15817;BME280;8009;50.070;8.232;2022-09-21T11:19:47;100934.63;;;17.07;62.31
15817;BME280;8009;50.070;8.232;2022-09-21T11:22:25;100936.22;;;17.09;62.33
15817;BME280;8009;50.070;8.232;2022-09-21T11:25:06;100925.63;;;17.16;62.19
15817;BME280;8009;50.070;8.232;2022-09-21T11:28:01;100928.41;;;16.74;62.47
15817;BME280;8009;50.070;8.232;2022-09-21T11:30:49;100918.53;;;16.83;55.91
15817;BME280;8009;50.070;8.232;2022-09-21T11:33:34;100922.78;;;17.17;62.03
15817;BME280;8009;50.070;8.232;2022-09-21T11:36:10;100925.84;;;17.34;61.34
15817;BME280;8009;50.070;8.232;2022-09-21T11:38:51;100932.34;;;17.42;61.15
15817;BME280;8009;50.070;8.232;2022-09-21T11:41:33;100917.69;;;17.43;61.60
15817;BME280;8009;50.070;8.232;2022-09-21T11:44:15;100925.34;;;17.19;60.50
15817;BME280;8009;50.070;8.232;2022-09-21T11:46:52;100923.44;;;17.40;60.60
15817;BME280;8009;50.070;8.232;2022-09-21T11:49:40;100911.63;;;16.78;48.32
15817;BME280;8009;50.070;8.232;2022-09-21T11:52:25;100907.47;;;17.36;60.83
15817;BME280;8009;50.070;8.232;2022-09-21T11:57:57;100912.53;;;17.50;58.76
15817;BME280;8009;50.070;8.232;2022-09-21T12:00:34;100906.66;;;17.45;60.66
15817;BME280;8009;50.070;8.232;2022-09-21T12:03:25;100911.53;;;17.41;60.85
15817;BME280;8009;50.070;8.232;2022-09-21T12:06:05;100906.22;;;17.49;60.04
15817;BME280;8009;50.070;8.232;2022-09-21T12:08:53;100900.53;;;17.32;61.17
15817;BME280;8009;50.070;8.232;2022-09-21T12:11:34;100902.31;;;17.33;61.38
15817;BME280;8009;50.070;8.232;2022-09-21T12:14:15;100891.41;;;17.42;60.56
15817;BME280;8009;50.070;8.232;2022-09-21T12:16:51;100899.31;;;17.45;60.64
15817;BME280;8009;50.070;8.232;2022-09-21T12:19:27;100894.38;;;17.29;46.67
15817;BME280;8009;50.070;8.232;2022-09-21T12:22:04;100894.69;;;17.05;46.67
15817;BME280;8009;50.070;8.232;2022-09-21T12:24:39;100896.44;;;17.47;60.40
15817;BME280;8009;50.070;8.232;2022-09-21T12:27:24;100891.72;;;17.49;59.37
15817;BME280;8009;50.070;8.232;2022-09-21T12:30:02;100883.38;;;17.50;59.99
15817;BME280;8009;50.070;8.232;2022-09-21T12:32:41;100888.66;;;17.42;59.36
15817;BME280;8009;50.070;8.232;2022-09-21T12:35:17;100882.41;;;17.51;60.05
15817;BME280;8009;50.070;8.232;2022-09-21T12:37:54;100876.94;;;17.61;60.45
15817;BME280;8009;50.070;8.232;2022-09-21T12:40:32;100882.22;;;17.13;44.77
15817;BME280;8009;50.070;8.232;2022-09-21T12:43:15;100873.34;;;17.61;60.31
15817;BME280;8009;50.070;8.232;2022-09-21T12:45:51;100877.38;;;17.66;53.52
15817;BME280;8009;50.070;8.232;2022-09-21T12:48:30;100880.38;;;17.53;60.31
15817;BME280;8009;50.070;8.232;2022-09-21T12:51:06;100876.97;;;17.71;59.81
15817;BME280;8009;50.070;8.232;2022-09-21T12:53:43;100876.50;;;17.56;59.94
15817;BME280;8009;50.070;8.232;2022-09-21T12:56:24;100874.78;;;17.65;59.79
15817;BME280;8009;50.070;8.232;2022-09-21T12:59:07;100876.81;;;17.72;59.77
15817;BME280;8009;50.070;8.232;2022-09-21T13:01:47;100865.31;;;17.59;60.18
15817;BME280;8009;50.070;8.232;2022-09-21T13:04:42;100865.59;;;17.56;51.78
15817;BME280;8009;50.070;8.232;2022-09-21T13:07:27;100865.53;;;17.46;60.11
15817;BME280;8009;50.070;8.232;2022-09-21T13:10:13;100860.03;;;17.27;46.23
15817;BME280;8009;50.070;8.232;2022-09-21T13:12:45;100855.69;;;17.15;60.79
15817;BME280;8009;50.070;8.232;2022-09-21T13:15:23;100864.41;;;17.09;58.24
15817;BME280;8009;50.070;8.232;2022-09-21T13:18:00;100853.06;;;17.03;56.26
15817;BME280;8009;50.070;8.232;2022-09-21T13:20:35;100852.53;;;17.19;58.22
15817;BME280;8009;50.070;8.232;2022-09-21T13:23:04;100850.81;;;17.28;60.49
15817;BME280;8009;50.070;8.232;2022-09-21T13:25:36;100845.97;;;17.32;60.33
15817;BME280;8009;50.070;8.232;2022-09-21T13:28:17;100856.00;;;17.31;58.98
15817;BME280;8009;50.070;8.232;2022-09-21T13:30:49;100860.66;;;17.40;59.85
15817;BME280;8009;50.070;8.232;2022-09-21T13:37:22;100855.78;;;17.44;60.20
15817;BME280;8009;50.070;8.232;2022-09-21T13:43:41;100851.88;;;17.37;60.68
15817;BME280;8009;50.070;8.232;2022-09-21T13:49:18;100837.22;;;17.38;59.87
15817;BME280;8009;50.070;8.232;2022-09-21T13:51:50;100833.94;;;17.44;59.16